Terminal Aerodrome Forecast
Issued by NWS

Home | Current Version | Previous Version | Text Only | Print | Product List | Glossary Off
Versions: 1 2 3 4 5 6 7 8 9 10 11 12 13 14 15 16

000
FTUS43 KMPX 201100 RRA
TAFRWF
TAF
KRWF 201139Z 2012/2112 30010KT P6SM SCT250
     FM201800 28014G22KT P6SM SCT060 BKN200
     FM202100 30013G20KT P6SM BKN045 OVC080
      TEMPO 2021/2024 3SM TSRA OVC035CB
     FM210200 31009KT P6SM SCT045 BKN120
     FM210400 30008KT P6SM SCT120=

USA.gov is the U.S. government's official web portal to all federal, state and local government web resources and services.